Terminal Aerodrome Forecast
Issued by NWS

Home | Current Version | Previous Version | Text Only | Print | Product List | Glossary Off
Versions: 1 2 3 4 5 6 7 8 9 10 11 12 13 14 15 16 17 18 19 20 21 22 23 24

000
FTUS43 KBIS 262247 AAB
TAFJMS
TAF AMD
KJMS 262247Z 2623/2718 01006KT P6SM VCTS SCT050CB BKN100
      TEMPO 2700/2702 2SM TSRA BKN030CB
     FM270300 05007KT P6SM VCSH SCT100=

USA.gov is the U.S. government's official web portal to all federal, state and local government web resources and services.